sensor_id;sensor_type;location;lat;lon;timestamp;temperature;humidity
11087;DHT22;5597;47.588;9.642;2023-12-20T00:00:08;3.90;99.90
11087;DHT22;5597;47.588;9.642;2023-12-20T00:02:34;4.00;99.90
11087;DHT22;5597;47.588;9.642;2023-12-20T00:05:00;4.00;99.90
11087;DHT22;5597;47.588;9.642;2023-12-20T00:07:25;4.00;99.90
11087;DHT22;5597;47.588;9.642;2023-12-20T00:09:51;4.00;99.90
11087;DHT22;5597;47.588;9.642;2023-12-20T00:12:17;4.10;99.90
11087;DHT22;5597;47.588;9.642;2023-12-20T00:14:42;4.10;99.90
11087;DHT22;5597;47.588;9.642;2023-12-20T00:17:08;4.10;99.90
11087;DHT22;5597;47.588;9.642;2023-12-20T00:19:33;4.00;99.90
11087;DHT22;5597;47.588;9.642;2023-12-20T00:21:59;4.10;99.90
11087;DHT22;5597;47.588;9.642;2023-12-20T00:24:25;4.00;99.90
11087;DHT22;5597;47.588;9.642;2023-12-20T00:26:50;3.90;99.90
11087;DHT22;5597;47.588;9.642;2023-12-20T00:29:16;3.90;99.90
11087;DHT22;5597;47.588;9.642;2023-12-20T00:31:42;3.80;99.90
11087;DHT22;5597;47.588;9.642;2023-12-20T00:34:07;3.80;99.90
11087;DHT22;5597;47.588;9.642;2023-12-20T00:36:33;3.80;99.90
11087;DHT22;5597;47.588;9.642;2023-12-20T00:38:58;3.70;99.90
11087;DHT22;5597;47.588;9.642;2023-12-20T00:41:24;3.70;99.90
11087;DHT22;5597;47.588;9.642;2023-12-20T00:43:49;3.70;99.90
11087;DHT22;5597;47.588;9.642;2023-12-20T00:46:15;3.70;99.90
11087;DHT22;5597;47.588;9.642;2023-12-20T00:48:41;3.60;99.90
11087;DHT22;5597;47.588;9.642;2023-12-20T00:51:07;3.60;99.90
11087;DHT22;5597;47.588;9.642;2023-12-20T00:53:33;3.70;99.90
11087;DHT22;5597;47.588;9.642;2023-12-20T00:55:59;3.70;99.90
11087;DHT22;5597;47.588;9.642;2023-12-20T00:58:24;3.70;99.90
11087;DHT22;5597;47.588;9.642;2023-12-20T01:00:50;3.80;99.90
11087;DHT22;5597;47.588;9.642;2023-12-20T01:03:16;3.80;99.90
11087;DHT22;5597;47.588;9.642;2023-12-20T01:05:42;3.80;99.90
11087;DHT22;5597;47.588;9.642;2023-12-20T01:08:07;3.70;99.90
11087;DHT22;5597;47.588;9.642;2023-12-20T01:10:33;3.80;99.90
11087;DHT22;5597;47.588;9.642;2023-12-20T01:12:58;3.70;99.90
11087;DHT22;5597;47.588;9.642;2023-12-20T01:15:24;3.70;99.90
11087;DHT22;5597;47.588;9.642;2023-12-20T01:17:49;3.70;99.90
11087;DHT22;5597;47.588;9.642;2023-12-20T01:20:15;3.70;99.90
11087;DHT22;5597;47.588;9.642;2023-12-20T01:22:40;3.80;99.90
11087;DHT22;5597;47.588;9.642;2023-12-20T01:25:08;3.80;99.90
11087;DHT22;5597;47.588;9.642;2023-12-20T01:27:33;3.80;99.90
11087;DHT22;5597;47.588;9.642;2023-12-20T01:29:59;3.80;99.90
11087;DHT22;5597;47.588;9.642;2023-12-20T01:32:24;3.80;99.90
11087;DHT22;5597;47.588;9.642;2023-12-20T01:34:50;3.80;99.90
11087;DHT22;5597;47.588;9.642;2023-12-20T01:37:16;3.80;99.90
11087;DHT22;5597;47.588;9.642;2023-12-20T01:39:41;3.80;99.90
11087;DHT22;5597;47.588;9.642;2023-12-20T01:42:07;3.80;99.90
11087;DHT22;5597;47.588;9.642;2023-12-20T01:44:32;3.80;99.90
11087;DHT22;5597;47.588;9.642;2023-12-20T01:46:58;3.80;99.90
11087;DHT22;5597;47.588;9.642;2023-12-20T01:49:24;3.80;99.90
11087;DHT22;5597;47.588;9.642;2023-12-20T01:51:50;3.90;99.90
11087;DHT22;5597;47.588;9.642;2023-12-20T01:54:16;3.90;99.90
11087;DHT22;5597;47.588;9.642;2023-12-20T01:56:42;3.90;99.90
11087;DHT22;5597;47.588;9.642;2023-12-20T01:59:08;3.90;99.90
11087;DHT22;5597;47.588;9.642;2023-12-20T02:01:35;3.90;99.90
11087;DHT22;5597;47.588;9.642;2023-12-20T02:04:02;4.00;99.90
11087;DHT22;5597;47.588;9.642;2023-12-20T02:06:31;4.00;99.90
11087;DHT22;5597;47.588;9.642;2023-12-20T02:08:59;4.00;99.90
11087;DHT22;5597;47.588;9.642;2023-12-20T02:11:25;4.00;99.90
11087;DHT22;5597;47.588;9.642;2023-12-20T02:13:51;4.10;99.90
11087;DHT22;5597;47.588;9.642;2023-12-20T02:16:17;4.10;99.90
11087;DHT22;5597;47.588;9.642;2023-12-20T02:18:43;4.10;99.90
11087;DHT22;5597;47.588;9.642;2023-12-20T02:21:10;4.10;99.90
11087;DHT22;5597;47.588;9.642;2023-12-20T02:23:35;4.10;99.90
11087;DHT22;5597;47.588;9.642;2023-12-20T02:26:01;4.10;99.90
11087;DHT22;5597;47.588;9.642;2023-12-20T02:28:27;4.10;99.90
11087;DHT22;5597;47.588;9.642;2023-12-20T02:30:53;4.10;99.90
11087;DHT22;5597;47.588;9.642;2023-12-20T02:33:19;4.10;99.90
11087;DHT22;5597;47.588;9.642;2023-12-20T02:35:44;4.10;99.90
11087;DHT22;5597;47.588;9.642;2023-12-20T02:38:10;4.10;99.90
11087;DHT22;5597;47.588;9.642;2023-12-20T02:40:36;4.10;99.90
11087;DHT22;5597;47.588;9.642;2023-12-20T02:43:01;4.10;99.90
11087;DHT22;5597;47.588;9.642;2023-12-20T02:45:27;4.10;99.90
11087;DHT22;5597;47.588;9.642;2023-12-20T02:47:53;4.10;99.90
11087;DHT22;5597;47.588;9.642;2023-12-20T02:50:18;4.10;99.90
11087;DHT22;5597;47.588;9.642;2023-12-20T02:52:45;4.20;99.90
11087;DHT22;5597;47.588;9.642;2023-12-20T02:55:10;4.20;99.90
11087;DHT22;5597;47.588;9.642;2023-12-20T02:57:36;4.20;99.90
11087;DHT22;5597;47.588;9.642;2023-12-20T03:00:01;4.20;99.90
11087;DHT22;5597;47.588;9.642;2023-12-20T03:02:27;4.20;99.90
11087;DHT22;5597;47.588;9.642;2023-12-20T03:04:52;4.20;99.90
11087;DHT22;5597;47.588;9.642;2023-12-20T03:07:19;4.20;99.90
11087;DHT22;5597;47.588;9.642;2023-12-20T03:09:45;4.30;99.90
11087;DHT22;5597;47.588;9.642;2023-12-20T03:12:10;4.30;99.90
11087;DHT22;5597;47.588;9.642;2023-12-20T03:14:36;4.30;99.90
11087;DHT22;5597;47.588;9.642;2023-12-20T03:17:02;4.30;99.90
11087;DHT22;5597;47.588;9.642;2023-12-20T03:19:27;4.30;99.90
11087;DHT22;5597;47.588;9.642;2023-12-20T03:21:54;4.20;99.90
11087;DHT22;5597;47.588;9.642;2023-12-20T03:24:20;4.30;99.90
11087;DHT22;5597;47.588;9.642;2023-12-20T03:26:45;4.20;99.90
11087;DHT22;5597;47.588;9.642;2023-12-20T03:29:11;4.20;99.90
11087;DHT22;5597;47.588;9.642;2023-12-20T03:31:36;4.20;99.90
11087;DHT22;5597;47.588;9.642;2023-12-20T03:34:02;4.30;99.90
11087;DHT22;5597;47.588;9.642;2023-12-20T03:36:27;4.30;99.90
11087;DHT22;5597;47.588;9.642;2023-12-20T03:38:53;4.20;99.90
11087;DHT22;5597;47.588;9.642;2023-12-20T03:41:18;4.30;99.90
11087;DHT22;5597;47.588;9.642;2023-12-20T03:43:44;4.30;99.90
11087;DHT22;5597;47.588;9.642;2023-12-20T03:46:10;4.30;99.90
11087;DHT22;5597;47.588;9.642;2023-12-20T03:48:35;4.30;99.90
11087;DHT22;5597;47.588;9.642;2023-12-20T03:51:01;4.40;99.90
11087;DHT22;5597;47.588;9.642;2023-12-20T03:53:26;4.30;99.90
11087;DHT22;5597;47.588;9.642;2023-12-20T03:55:52;4.30;99.90
11087;DHT22;5597;47.588;9.642;2023-12-20T03:58:17;4.40;99.90
11087;DHT22;5597;47.588;9.642;2023-12-20T04:00:43;4.40;99.90
11087;DHT22;5597;47.588;9.642;2023-12-20T04:03:08;4.30;99.90
11087;DHT22;5597;47.588;9.642;2023-12-20T04:05:34;4.40;99.90
11087;DHT22;5597;47.588;9.642;2023-12-20T04:08:01;4.40;99.90
11087;DHT22;5597;47.588;9.642;2023-12-20T04:10:27;4.40;99.90
11087;DHT22;5597;47.588;9.642;2023-12-20T04:12:53;4.40;99.90
11087;DHT22;5597;47.588;9.642;2023-12-20T04:15:18;4.40;99.90
11087;DHT22;5597;47.588;9.642;2023-12-20T04:17:44;4.40;99.90
11087;DHT22;5597;47.588;9.642;2023-12-20T04:20:10;4.40;99.90
11087;DHT22;5597;47.588;9.642;2023-12-20T04:22:35;4.40;99.90
11087;DHT22;5597;47.588;9.642;2023-12-20T04:25:01;4.40;99.90
11087;DHT22;5597;47.588;9.642;2023-12-20T04:27:27;4.40;99.90
11087;DHT22;5597;47.588;9.642;2023-12-20T04:29:53;4.40;99.90
11087;DHT22;5597;47.588;9.642;2023-12-20T04:32:18;4.30;99.90
11087;DHT22;5597;47.588;9.642;2023-12-20T04:34:44;4.30;99.90
11087;DHT22;5597;47.588;9.642;2023-12-20T04:37:09;4.30;99.90
11087;DHT22;5597;47.588;9.642;2023-12-20T04:39:35;4.30;99.90
11087;DHT22;5597;47.588;9.642;2023-12-20T04:42:01;4.30;99.90
11087;DHT22;5597;47.588;9.642;2023-12-20T04:44:26;4.30;99.90
11087;DHT22;5597;47.588;9.642;2023-12-20T04:46:52;4.30;99.90
11087;DHT22;5597;47.588;9.642;2023-12-20T04:49:18;4.30;99.90
11087;DHT22;5597;47.588;9.642;2023-12-20T04:51:43;4.30;99.90
11087;DHT22;5597;47.588;9.642;2023-12-20T04:54:09;4.20;99.90
11087;DHT22;5597;47.588;9.642;2023-12-20T04:56:36;4.20;99.90
11087;DHT22;5597;47.588;9.642;2023-12-20T04:59:01;4.20;99.90
11087;DHT22;5597;47.588;9.642;2023-12-20T05:01:27;4.20;99.90
11087;DHT22;5597;47.588;9.642;2023-12-20T05:03:52;4.20;99.90
11087;DHT22;5597;47.588;9.642;2023-12-20T05:06:18;4.20;99.90
11087;DHT22;5597;47.588;9.642;2023-12-20T05:08:44;4.20;99.90
11087;DHT22;5597;47.588;9.642;2023-12-20T05:11:09;4.20;99.90
11087;DHT22;5597;47.588;9.642;2023-12-20T05:13:35;4.30;99.90
11087;DHT22;5597;47.588;9.642;2023-12-20T05:16:00;4.30;99.90
11087;DHT22;5597;47.588;9.642;2023-12-20T05:18:26;4.40;99.90
11087;DHT22;5597;47.588;9.642;2023-12-20T05:20:51;4.40;99.90
11087;DHT22;5597;47.588;9.642;2023-12-20T05:23:17;4.50;99.90
11087;DHT22;5597;47.588;9.642;2023-12-20T05:25:43;4.60;99.90
11087;DHT22;5597;47.588;9.642;2023-12-20T05:28:09;4.70;99.90
11087;DHT22;5597;47.588;9.642;2023-12-20T05:30:34;4.80;99.90
11087;DHT22;5597;47.588;9.642;2023-12-20T05:33:00;4.90;99.90
11087;DHT22;5597;47.588;9.642;2023-12-20T05:35:26;4.90;99.90
11087;DHT22;5597;47.588;9.642;2023-12-20T05:37:51;4.90;99.90
11087;DHT22;5597;47.588;9.642;2023-12-20T05:40:17;5.00;99.90
11087;DHT22;5597;47.588;9.642;2023-12-20T05:42:42;5.00;99.90
11087;DHT22;5597;47.588;9.642;2023-12-20T05:45:09;5.00;99.90
11087;DHT22;5597;47.588;9.642;2023-12-20T05:47:34;5.10;99.90
11087;DHT22;5597;47.588;9.642;2023-12-20T05:50:00;5.00;99.90
11087;DHT22;5597;47.588;9.642;2023-12-20T05:52:25;5.10;99.90
11087;DHT22;5597;47.588;9.642;2023-12-20T05:54:51;5.10;99.90
11087;DHT22;5597;47.588;9.642;2023-12-20T05:57:17;5.10;99.90
11087;DHT22;5597;47.588;9.642;2023-12-20T05:59:43;5.10;99.90
11087;DHT22;5597;47.588;9.642;2023-12-20T06:02:08;5.10;99.90
11087;DHT22;5597;47.588;9.642;2023-12-20T06:04:34;5.10;99.90
11087;DHT22;5597;47.588;9.642;2023-12-20T06:06:59;5.10;99.90
11087;DHT22;5597;47.588;9.642;2023-12-20T06:09:26;5.10;99.90
11087;DHT22;5597;47.588;9.642;2023-12-20T06:11:52;5.10;99.90
11087;DHT22;5597;47.588;9.642;2023-12-20T06:14:18;5.10;99.90
11087;DHT22;5597;47.588;9.642;2023-12-20T06:16:43;5.10;99.90
11087;DHT22;5597;47.588;9.642;2023-12-20T06:19:10;5.10;99.90
11087;DHT22;5597;47.588;9.642;2023-12-20T06:21:36;5.10;99.90
11087;DHT22;5597;47.588;9.642;2023-12-20T06:24:01;5.10;99.90
11087;DHT22;5597;47.588;9.642;2023-12-20T06:26:27;5.10;99.90
11087;DHT22;5597;47.588;9.642;2023-12-20T06:28:52;5.10;99.90
11087;DHT22;5597;47.588;9.642;2023-12-20T06:31:18;5.10;99.90
11087;DHT22;5597;47.588;9.642;2023-12-20T06:33:43;5.20;99.90
11087;DHT22;5597;47.588;9.642;2023-12-20T06:36:12;5.10;99.90
11087;DHT22;5597;47.588;9.642;2023-12-20T06:38:38;5.10;99.90
11087;DHT22;5597;47.588;9.642;2023-12-20T06:41:04;5.20;99.90
11087;DHT22;5597;47.588;9.642;2023-12-20T06:43:30;5.10;99.90
11087;DHT22;5597;47.588;9.642;2023-12-20T06:45:56;5.10;99.90
11087;DHT22;5597;47.588;9.642;2023-12-20T06:48:22;5.10;99.90
11087;DHT22;5597;47.588;9.642;2023-12-20T06:50:47;5.10;99.90
11087;DHT22;5597;47.588;9.642;2023-12-20T06:53:13;5.10;99.90
11087;DHT22;5597;47.588;9.642;2023-12-20T06:55:38;5.10;99.90
11087;DHT22;5597;47.588;9.642;2023-12-20T06:58:04;5.10;99.90
11087;DHT22;5597;47.588;9.642;2023-12-20T07:00:30;5.10;99.90
11087;DHT22;5597;47.588;9.642;2023-12-20T07:02:56;5.10;99.90
11087;DHT22;5597;47.588;9.642;2023-12-20T07:05:21;5.10;99.90
11087;DHT22;5597;47.588;9.642;2023-12-20T07:07:47;5.10;99.90
11087;DHT22;5597;47.588;9.642;2023-12-20T07:10:13;5.10;99.90
11087;DHT22;5597;47.588;9.642;2023-12-20T07:12:39;5.20;99.90
11087;DHT22;5597;47.588;9.642;2023-12-20T07:15:05;5.10;99.90
11087;DHT22;5597;47.588;9.642;2023-12-20T07:17:34;5.10;99.90
11087;DHT22;5597;47.588;9.642;2023-12-20T07:20:00;5.20;99.90
11087;DHT22;5597;47.588;9.642;2023-12-20T07:22:29;5.10;99.90
11087;DHT22;5597;47.588;9.642;2023-12-20T07:24:57;5.10;99.90
11087;DHT22;5597;47.588;9.642;2023-12-20T07:27:23;5.10;99.90
11087;DHT22;5597;47.588;9.642;2023-12-20T07:29:48;5.10;99.90
11087;DHT22;5597;47.588;9.642;2023-12-20T07:32:14;5.10;99.90
11087;DHT22;5597;47.588;9.642;2023-12-20T07:34:42;5.10;99.90
11087;DHT22;5597;47.588;9.642;2023-12-20T07:37:07;5.10;99.90
11087;DHT22;5597;47.588;9.642;2023-12-20T07:39:35;5.20;99.90
11087;DHT22;5597;47.588;9.642;2023-12-20T07:42:01;5.10;99.90
11087;DHT22;5597;47.588;9.642;2023-12-20T07:44:27;5.10;99.90
11087;DHT22;5597;47.588;9.642;2023-12-20T07:46:52;5.10;99.90
11087;DHT22;5597;47.588;9.642;2023-12-20T07:49:19;5.10;99.90
11087;DHT22;5597;47.588;9.642;2023-12-20T07:51:44;5.10;99.90
11087;DHT22;5597;47.588;9.642;2023-12-20T07:54:10;5.20;99.90
11087;DHT22;5597;47.588;9.642;2023-12-20T07:56:35;5.10;99.90
11087;DHT22;5597;47.588;9.642;2023-12-20T07:59:01;5.20;99.90
11087;DHT22;5597;47.588;9.642;2023-12-20T08:01:27;5.10;99.90
11087;DHT22;5597;47.588;9.642;2023-12-20T08:03:52;5.10;99.90
11087;DHT22;5597;47.588;9.642;2023-12-20T08:06:18;5.20;99.90
11087;DHT22;5597;47.588;9.642;2023-12-20T08:08:43;5.10;99.90
11087;DHT22;5597;47.588;9.642;2023-12-20T08:11:09;5.20;99.90
11087;DHT22;5597;47.588;9.642;2023-12-20T08:13:34;5.20;99.90
11087;DHT22;5597;47.588;9.642;2023-12-20T08:16:00;5.20;99.90
11087;DHT22;5597;47.588;9.642;2023-12-20T08:18:28;5.20;99.90
11087;DHT22;5597;47.588;9.642;2023-12-20T08:20:53;5.20;99.90
11087;DHT22;5597;47.588;9.642;2023-12-20T08:23:19;5.20;99.90
11087;DHT22;5597;47.588;9.642;2023-12-20T08:25:46;5.20;99.90
11087;DHT22;5597;47.588;9.642;2023-12-20T08:28:12;5.20;99.90
11087;DHT22;5597;47.588;9.642;2023-12-20T08:30:38;5.30;99.90
11087;DHT22;5597;47.588;9.642;2023-12-20T08:33:04;5.30;99.90
11087;DHT22;5597;47.588;9.642;2023-12-20T08:35:30;5.30;99.90
11087;DHT22;5597;47.588;9.642;2023-12-20T08:37:56;5.30;99.90
11087;DHT22;5597;47.588;9.642;2023-12-20T08:40:21;5.40;99.90
11087;DHT22;5597;47.588;9.642;2023-12-20T08:42:47;5.30;99.90
11087;DHT22;5597;47.588;9.642;2023-12-20T08:45:13;5.40;99.90
11087;DHT22;5597;47.588;9.642;2023-12-20T08:47:38;5.40;99.90
11087;DHT22;5597;47.588;9.642;2023-12-20T08:50:04;5.40;99.90
11087;DHT22;5597;47.588;9.642;2023-12-20T08:52:30;5.40;99.90
11087;DHT22;5597;47.588;9.642;2023-12-20T08:54:56;5.40;99.90
11087;DHT22;5597;47.588;9.642;2023-12-20T08:57:22;5.50;99.90
11087;DHT22;5597;47.588;9.642;2023-12-20T08:59:49;5.50;99.90
11087;DHT22;5597;47.588;9.642;2023-12-20T09:02:16;5.50;99.90
11087;DHT22;5597;47.588;9.642;2023-12-20T09:04:42;5.60;99.90
11087;DHT22;5597;47.588;9.642;2023-12-20T09:07:20;5.60;99.90
11087;DHT22;5597;47.588;9.642;2023-12-20T09:09:46;5.60;99.90
11087;DHT22;5597;47.588;9.642;2023-12-20T09:12:11;5.60;99.90
11087;DHT22;5597;47.588;9.642;2023-12-20T09:14:37;5.60;99.90
11087;DHT22;5597;47.588;9.642;2023-12-20T09:17:02;5.70;99.90
11087;DHT22;5597;47.588;9.642;2023-12-20T09:19:28;5.60;99.90
11087;DHT22;5597;47.588;9.642;2023-12-20T09:21:54;5.70;99.90
11087;DHT22;5597;47.588;9.642;2023-12-20T09:24:20;5.70;99.90
11087;DHT22;5597;47.588;9.642;2023-12-20T09:26:46;5.70;99.90
11087;DHT22;5597;47.588;9.642;2023-12-20T09:29:11;5.70;99.90
11087;DHT22;5597;47.588;9.642;2023-12-20T09:31:41;5.70;99.90
11087;DHT22;5597;47.588;9.642;2023-12-20T09:34:06;5.70;99.90
11087;DHT22;5597;47.588;9.642;2023-12-20T09:36:32;5.80;99.90
11087;DHT22;5597;47.588;9.642;2023-12-20T09:39:01;5.80;99.90
11087;DHT22;5597;47.588;9.642;2023-12-20T09:41:29;5.80;99.90
11087;DHT22;5597;47.588;9.642;2023-12-20T09:43:59;5.80;99.90
11087;DHT22;5597;47.588;9.642;2023-12-20T09:46:28;5.80;99.90
11087;DHT22;5597;47.588;9.642;2023-12-20T09:48:59;5.80;99.90
11087;DHT22;5597;47.588;9.642;2023-12-20T09:51:27;5.90;99.90
11087;DHT22;5597;47.588;9.642;2023-12-20T09:53:54;5.90;99.90
11087;DHT22;5597;47.588;9.642;2023-12-20T09:56:20;5.90;99.90
11087;DHT22;5597;47.588;9.642;2023-12-20T09:58:46;5.90;99.90
11087;DHT22;5597;47.588;9.642;2023-12-20T10:01:12;6.00;99.90
11087;DHT22;5597;47.588;9.642;2023-12-20T10:03:39;6.00;99.90
11087;DHT22;5597;47.588;9.642;2023-12-20T10:06:06;6.00;99.90
11087;DHT22;5597;47.588;9.642;2023-12-20T10:08:32;6.10;99.90
11087;DHT22;5597;47.588;9.642;2023-12-20T10:10:58;6.00;99.90
11087;DHT22;5597;47.588;9.642;2023-12-20T10:13:28;6.10;99.90
11087;DHT22;5597;47.588;9.642;2023-12-20T10:15:55;6.10;99.90
11087;DHT22;5597;47.588;9.642;2023-12-20T10:18:21;6.10;99.90
11087;DHT22;5597;47.588;9.642;2023-12-20T10:20:46;6.10;99.90
11087;DHT22;5597;47.588;9.642;2023-12-20T10:23:12;6.10;99.90
11087;DHT22;5597;47.588;9.642;2023-12-20T10:25:39;6.20;99.90
11087;DHT22;5597;47.588;9.642;2023-12-20T10:28:13;6.20;99.90
11087;DHT22;5597;47.588;9.642;2023-12-20T10:30:40;6.20;99.90
11087;DHT22;5597;47.588;9.642;2023-12-20T10:33:07;6.20;99.90
11087;DHT22;5597;47.588;9.642;2023-12-20T10:35:36;6.20;99.90
11087;DHT22;5597;47.588;9.642;2023-12-20T10:38:06;6.20;99.90
11087;DHT22;5597;47.588;9.642;2023-12-20T10:40:35;6.20;99.90
11087;DHT22;5597;47.588;9.642;2023-12-20T10:43:04;6.20;99.90
11087;DHT22;5597;47.588;9.642;2023-12-20T10:45:30;6.20;99.90
11087;DHT22;5597;47.588;9.642;2023-12-20T10:47:57;6.20;99.90
11087;DHT22;5597;47.588;9.642;2023-12-20T10:50:25;6.20;99.90
11087;DHT22;5597;47.588;9.642;2023-12-20T10:52:52;6.20;99.90
11087;DHT22;5597;47.588;9.642;2023-12-20T10:55:21;6.20;99.90
11087;DHT22;5597;47.588;9.642;2023-12-20T10:57:47;6.30;99.90
11087;DHT22;5597;47.588;9.642;2023-12-20T11:00:17;6.30;99.90
11087;DHT22;5597;47.588;9.642;2023-12-20T11:02:44;6.30;99.90
11087;DHT22;5597;47.588;9.642;2023-12-20T11:08:09;6.30;99.90
11087;DHT22;5597;47.588;9.642;2023-12-20T11:10:51;6.30;99.90
11087;DHT22;5597;47.588;9.642;2023-12-20T11:13:20;6.30;99.90
11087;DHT22;5597;47.588;9.642;2023-12-20T11:15:47;6.40;99.90
11087;DHT22;5597;47.588;9.642;2023-12-20T11:18:12;6.40;99.90
11087;DHT22;5597;47.588;9.642;2023-12-20T11:20:39;6.40;99.90
11087;DHT22;5597;47.588;9.642;2023-12-20T11:23:07;6.50;99.90
11087;DHT22;5597;47.588;9.642;2023-12-20T11:25:52;6.50;99.90
11087;DHT22;5597;47.588;9.642;2023-12-20T11:28:24;6.40;99.90
11087;DHT22;5597;47.588;9.642;2023-12-20T11:33:25;6.50;99.90
11087;DHT22;5597;47.588;9.642;2023-12-20T11:35:51;6.50;99.90
11087;DHT22;5597;47.588;9.642;2023-12-20T11:38:19;6.50;99.90
11087;DHT22;5597;47.588;9.642;2023-12-20T11:40:48;6.50;99.90
11087;DHT22;5597;47.588;9.642;2023-12-20T11:43:39;6.50;99.90
11087;DHT22;5597;47.588;9.642;2023-12-20T11:46:05;6.50;99.90
11087;DHT22;5597;47.588;9.642;2023-12-20T11:48:32;6.50;99.90
11087;DHT22;5597;47.588;9.642;2023-12-20T11:50:58;6.50;99.90
11087;DHT22;5597;47.588;9.642;2023-12-20T11:53:24;6.60;99.90
11087;DHT22;5597;47.588;9.642;2023-12-20T11:55:50;6.60;99.90
11087;DHT22;5597;47.588;9.642;2023-12-20T11:58:16;6.60;99.90
11087;DHT22;5597;47.588;9.642;2023-12-20T12:00:44;6.60;99.90
11087;DHT22;5597;47.588;9.642;2023-12-20T12:03:10;6.60;99.90
11087;DHT22;5597;47.588;9.642;2023-12-20T12:05:35;6.60;99.90
11087;DHT22;5597;47.588;9.642;2023-12-20T12:08:02;6.70;99.90
11087;DHT22;5597;47.588;9.642;2023-12-20T12:10:29;6.70;99.90
11087;DHT22;5597;47.588;9.642;2023-12-20T12:12:55;6.70;99.90
11087;DHT22;5597;47.588;9.642;2023-12-20T12:15:21;6.70;99.90
11087;DHT22;5597;47.588;9.642;2023-12-20T12:17:53;6.80;99.90
11087;DHT22;5597;47.588;9.642;2023-12-20T12:20:20;6.80;99.90
11087;DHT22;5597;47.588;9.642;2023-12-20T12:22:46;6.80;99.90
11087;DHT22;5597;47.588;9.642;2023-12-20T12:25:16;6.80;99.90
11087;DHT22;5597;47.588;9.642;2023-12-20T12:27:42;6.90;99.90
11087;DHT22;5597;47.588;9.642;2023-12-20T12:30:08;6.80;99.90
11087;DHT22;5597;47.588;9.642;2023-12-20T12:32:35;6.80;99.90
11087;DHT22;5597;47.588;9.642;2023-12-20T12:35:03;6.80;99.90
11087;DHT22;5597;47.588;9.642;2023-12-20T12:37:29;6.80;99.90
11087;DHT22;5597;47.588;9.642;2023-12-20T12:39:54;6.80;99.90
11087;DHT22;5597;47.588;9.642;2023-12-20T12:42:20;6.90;99.90
11087;DHT22;5597;47.588;9.642;2023-12-20T12:44:46;6.80;99.90
11087;DHT22;5597;47.588;9.642;2023-12-20T12:47:12;6.80;99.90
11087;DHT22;5597;47.588;9.642;2023-12-20T12:49:40;6.80;99.90
11087;DHT22;5597;47.588;9.642;2023-12-20T12:52:05;6.90;99.90
11087;DHT22;5597;47.588;9.642;2023-12-20T12:54:31;6.80;99.90
11087;DHT22;5597;47.588;9.642;2023-12-20T12:56:57;6.90;99.90
11087;DHT22;5597;47.588;9.642;2023-12-20T12:59:23;6.80;99.90
11087;DHT22;5597;47.588;9.642;2023-12-20T13:01:49;6.80;99.90
11087;DHT22;5597;47.588;9.642;2023-12-20T13:04:14;6.90;99.90
11087;DHT22;5597;47.588;9.642;2023-12-20T13:06:40;6.90;99.90
11087;DHT22;5597;47.588;9.642;2023-12-20T13:09:07;6.90;99.90
11087;DHT22;5597;47.588;9.642;2023-12-20T13:11:35;7.00;99.90
11087;DHT22;5597;47.588;9.642;2023-12-20T13:14:00;7.00;99.90
11087;DHT22;5597;47.588;9.642;2023-12-20T13:16:26;7.00;99.90
11087;DHT22;5597;47.588;9.642;2023-12-20T13:18:52;7.00;99.90
11087;DHT22;5597;47.588;9.642;2023-12-20T13:21:17;7.00;99.90
11087;DHT22;5597;47.588;9.642;2023-12-20T13:23:43;7.00;99.90
11087;DHT22;5597;47.588;9.642;2023-12-20T13:26:09;7.00;99.90
11087;DHT22;5597;47.588;9.642;2023-12-20T13:28:34;7.00;99.90
11087;DHT22;5597;47.588;9.642;2023-12-20T13:31:00;7.00;99.90
11087;DHT22;5597;47.588;9.642;2023-12-20T13:33:25;7.00;99.90
11087;DHT22;5597;47.588;9.642;2023-12-20T13:35:51;7.00;99.90
11087;DHT22;5597;47.588;9.642;2023-12-20T13:38:17;7.00;99.90
11087;DHT22;5597;47.588;9.642;2023-12-20T13:40:43;7.00;99.90
11087;DHT22;5597;47.588;9.642;2023-12-20T13:43:08;7.00;99.90
11087;DHT22;5597;47.588;9.642;2023-12-20T13:45:35;7.00;99.90
11087;DHT22;5597;47.588;9.642;2023-12-20T13:48:01;7.00;99.90
11087;DHT22;5597;47.588;9.642;2023-12-20T13:50:27;6.90;99.90
11087;DHT22;5597;47.588;9.642;2023-12-20T13:52:52;6.90;99.90
11087;DHT22;5597;47.588;9.642;2023-12-20T13:55:18;6.90;99.90
11087;DHT22;5597;47.588;9.642;2023-12-20T13:57:47;6.90;99.90
11087;DHT22;5597;47.588;9.642;2023-12-20T14:00:14;6.80;99.90
11087;DHT22;5597;47.588;9.642;2023-12-20T14:02:41;6.80;99.90
11087;DHT22;5597;47.588;9.642;2023-12-20T14:05:07;6.80;99.90
11087;DHT22;5597;47.588;9.642;2023-12-20T14:07:33;6.80;99.90
11087;DHT22;5597;47.588;9.642;2023-12-20T14:09:58;6.70;99.90
11087;DHT22;5597;47.588;9.642;2023-12-20T14:12:25;6.70;99.90
11087;DHT22;5597;47.588;9.642;2023-12-20T14:14:50;6.70;99.90
11087;DHT22;5597;47.588;9.642;2023-12-20T14:17:17;6.70;99.90
11087;DHT22;5597;47.588;9.642;2023-12-20T14:19:43;6.70;99.90
11087;DHT22;5597;47.588;9.642;2023-12-20T14:22:08;6.70;99.90
11087;DHT22;5597;47.588;9.642;2023-12-20T14:24:35;6.70;99.90
11087;DHT22;5597;47.588;9.642;2023-12-20T14:27:01;6.70;99.90
11087;DHT22;5597;47.588;9.642;2023-12-20T14:29:27;6.60;99.90
11087;DHT22;5597;47.588;9.642;2023-12-20T14:31:53;6.60;99.90
11087;DHT22;5597;47.588;9.642;2023-12-20T14:34:18;6.60;99.90
11087;DHT22;5597;47.588;9.642;2023-12-20T14:36:44;6.60;99.90
11087;DHT22;5597;47.588;9.642;2023-12-20T14:39:09;6.70;99.90
11087;DHT22;5597;47.588;9.642;2023-12-20T14:41:38;6.70;99.90
11087;DHT22;5597;47.588;9.642;2023-12-20T14:44:05;6.70;99.90
11087;DHT22;5597;47.588;9.642;2023-12-20T14:46:31;6.70;99.90
11087;DHT22;5597;47.588;9.642;2023-12-20T14:48:56;6.60;99.90
11087;DHT22;5597;47.588;9.642;2023-12-20T14:51:22;6.60;99.90
11087;DHT22;5597;47.588;9.642;2023-12-20T14:53:48;6.50;99.90
11087;DHT22;5597;47.588;9.642;2023-12-20T14:56:13;6.50;99.90
11087;DHT22;5597;47.588;9.642;2023-12-20T14:58:40;6.40;99.90
11087;DHT22;5597;47.588;9.642;2023-12-20T15:01:05;6.40;99.90
11087;DHT22;5597;47.588;9.642;2023-12-20T15:03:34;6.40;99.90
11087;DHT22;5597;47.588;9.642;2023-12-20T15:06:00;6.40;99.90
11087;DHT22;5597;47.588;9.642;2023-12-20T15:08:26;6.30;99.90
11087;DHT22;5597;47.588;9.642;2023-12-20T15:10:51;6.30;99.90
11087;DHT22;5597;47.588;9.642;2023-12-20T15:13:17;6.30;99.90
11087;DHT22;5597;47.588;9.642;2023-12-20T15:15:42;6.30;99.90
11087;DHT22;5597;47.588;9.642;2023-12-20T15:18:08;6.20;99.90
11087;DHT22;5597;47.588;9.642;2023-12-20T15:20:34;6.20;99.90
11087;DHT22;5597;47.588;9.642;2023-12-20T15:23:02;6.20;99.90
11087;DHT22;5597;47.588;9.642;2023-12-20T15:25:32;6.10;99.90
11087;DHT22;5597;47.588;9.642;2023-12-20T15:27:58;6.10;99.90
11087;DHT22;5597;47.588;9.642;2023-12-20T15:30:23;6.10;99.90
11087;DHT22;5597;47.588;9.642;2023-12-20T15:32:50;6.00;99.90
11087;DHT22;5597;47.588;9.642;2023-12-20T15:35:16;6.00;99.90
11087;DHT22;5597;47.588;9.642;2023-12-20T15:37:42;5.90;99.90
11087;DHT22;5597;47.588;9.642;2023-12-20T15:40:09;5.90;99.90
11087;DHT22;5597;47.588;9.642;2023-12-20T15:42:40;5.90;99.90
11087;DHT22;5597;47.588;9.642;2023-12-20T15:45:07;5.90;99.90
11087;DHT22;5597;47.588;9.642;2023-12-20T15:47:35;5.80;99.90
11087;DHT22;5597;47.588;9.642;2023-12-20T15:50:04;5.80;99.90
11087;DHT22;5597;47.588;9.642;2023-12-20T15:52:30;5.80;99.90
11087;DHT22;5597;47.588;9.642;2023-12-20T15:54:56;5.80;99.90
11087;DHT22;5597;47.588;9.642;2023-12-20T15:57:22;5.80;99.90
11087;DHT22;5597;47.588;9.642;2023-12-20T15:59:47;5.70;99.90